createdAt,value
2019-04-06T00:03:46.991Z,10.98
2019-04-06T00:06:14.543Z,12.47
2019-04-06T00:08:44.028Z,10.53
2019-04-06T00:11:11.599Z,10.83
2019-04-06T00:13:39.154Z,13.87
2019-04-06T00:16:06.730Z,16.62
2019-04-06T00:18:34.298Z,13.80
2019-04-06T00:21:01.871Z,18.30
2019-04-06T00:23:29.437Z,14.77
2019-04-06T00:25:58.682Z,10.27
2019-04-06T00:28:26.277Z,11.13
2019-04-06T00:30:57.517Z,13.60
2019-04-06T00:33:26.122Z,12.80
2019-04-06T00:35:53.686Z,12.47
2019-04-06T00:38:21.272Z,12.13
2019-04-06T00:40:48.828Z,9.13
2019-04-06T00:43:17.315Z,10.40
2019-04-06T00:45:45.156Z,11.37
2019-04-06T00:48:12.715Z,10.33
2019-04-06T00:50:40.274Z,11.30
2019-04-06T00:53:09.791Z,11.27
2019-04-06T00:55:37.355Z,10.40
2019-04-06T00:58:04.953Z,8.57
2019-04-06T01:00:32.511Z,9.00
2019-04-06T01:03:00.070Z,9.07
2019-04-06T01:05:27.638Z,10.73
2019-04-06T01:07:55.203Z,10.13
2019-04-06T01:10:22.766Z,10.90
2019-04-06T01:12:50.331Z,7.50
2019-04-06T01:15:17.893Z,9.27
2019-04-06T01:17:45.452Z,8.03
2019-04-06T01:20:13.016Z,8.53
2019-04-06T01:22:41.509Z,9.23
2019-04-06T01:25:09.067Z,10.23
2019-04-06T01:27:36.626Z,9.60
2019-04-06T01:30:05.927Z,7.77
2019-04-06T01:32:35.395Z,9.00
2019-04-06T01:35:02.960Z,9.30
2019-04-06T01:37:30.525Z,7.80
2019-04-06T01:39:58.082Z,6.90
2019-04-06T01:42:25.647Z,8.30
2019-04-06T01:44:53.198Z,7.67
2019-04-06T01:47:20.791Z,8.02
2019-04-06T01:49:48.343Z,6.77
2019-04-06T01:52:15.894Z,8.03
2019-04-06T01:54:43.452Z,7.63
2019-04-06T01:57:12.947Z,9.40
2019-04-06T01:59:40.503Z,5.93
2019-04-06T02:02:12.663Z,7.07
2019-04-06T02:04:40.228Z,8.30
2019-04-06T02:07:07.789Z,6.10
2019-04-06T02:09:37.272Z,7.23
2019-04-06T02:12:04.940Z,5.00
2019-04-06T02:14:32.450Z,5.30
2019-04-06T02:17:00.011Z,7.90
2019-04-06T02:19:28.331Z,6.73
2019-04-06T02:21:55.889Z,7.10
2019-04-06T02:24:23.449Z,5.20
2019-04-06T02:26:51.009Z,5.30
2019-04-06T02:29:18.574Z,7.43
2019-04-06T02:34:48.943Z,6.37
2019-04-06T02:37:32.279Z,5.20
2019-04-06T02:40:08.230Z,5.67
2019-04-06T02:42:34.080Z,6.27
2019-04-06T02:45:01.767Z,5.27
2019-04-06T02:47:29.236Z,5.27
2019-04-06T02:49:56.801Z,4.53
2019-04-06T02:52:24.356Z,6.63
2019-04-06T02:54:51.962Z,5.00
2019-04-06T02:57:19.518Z,5.23
2019-04-06T02:59:47.085Z,6.20
2019-04-06T03:02:14.881Z,4.80
2019-04-06T03:04:42.268Z,5.00
2019-04-06T03:07:09.916Z,4.80
2019-04-06T03:09:37.561Z,5.53
2019-04-06T03:12:05.045Z,7.10
2019-04-06T03:14:32.600Z,8.10
2019-04-06T03:17:00.170Z,4.90
2019-04-06T03:19:27.732Z,4.00
2019-04-06T03:21:55.313Z,3.80
2019-04-06T03:24:22.877Z,4.77
2019-04-06T03:27:00.896Z,4.33
2019-04-06T03:29:18.820Z,5.13
2019-04-06T03:31:46.379Z,5.40
2019-04-06T03:34:20.044Z,5.33
2019-04-06T03:36:41.564Z,9.40
2019-04-06T03:39:09.176Z,5.43
2019-04-06T03:41:36.728Z,5.70
2019-04-06T03:44:04.291Z,4.67
2019-04-06T03:46:33.769Z,5.27
2019-04-06T03:49:01.323Z,5.13
2019-04-06T03:51:28.882Z,4.57
2019-04-06T03:53:56.439Z,4.73
2019-04-06T03:56:23.999Z,5.90
2019-04-06T03:58:52.328Z,6.80
2019-04-06T04:01:19.169Z,7.73
2019-04-06T04:03:48.415Z,6.13
2019-04-06T04:06:15.985Z,5.20
2019-04-06T04:08:43.559Z,6.03
2019-04-06T04:11:11.128Z,7.07
2019-04-06T04:13:38.823Z,5.13
2019-04-06T04:16:06.291Z,5.60
2019-04-06T04:18:33.855Z,4.87
2019-04-06T04:21:01.486Z,6.60
2019-04-06T04:23:29.027Z,10.03
2019-04-06T04:25:57.350Z,4.73
2019-04-06T04:28:26.828Z,4.90
2019-04-06T04:30:56.360Z,6.50
2019-04-06T04:33:24.876Z,5.23
2019-04-06T04:35:52.516Z,6.93
2019-04-06T04:38:21.965Z,6.10
2019-04-06T04:40:49.760Z,5.57
2019-04-06T04:43:17.138Z,4.80
2019-04-06T04:45:44.703Z,7.13
2019-04-06T04:48:12.273Z,6.10
2019-04-06T04:50:39.842Z,4.93
2019-04-06T04:53:07.403Z,5.93
2019-04-06T04:55:35.721Z,4.70
2019-04-06T04:58:03.275Z,4.57
2019-04-06T05:00:30.832Z,6.43
2019-04-06T05:03:00.320Z,4.83
2019-04-06T05:05:28.819Z,6.13
2019-04-06T05:07:56.469Z,4.53
2019-04-06T05:10:24.026Z,7.17
2019-04-06T05:12:51.581Z,7.87
2019-04-06T05:15:20.814Z,6.10
2019-04-06T05:17:48.371Z,7.90
2019-04-06T05:20:15.938Z,5.80
2019-04-06T05:22:43.494Z,9.43
2019-04-06T05:25:11.066Z,7.43
2019-04-06T05:27:50.775Z,7.93
2019-04-06T05:30:07.772Z,8.67
2019-04-06T05:32:35.328Z,6.17
2019-04-06T05:35:02.997Z,8.20
2019-04-06T05:37:30.525Z,7.80
2019-04-06T05:39:58.091Z,5.70
2019-04-06T05:42:25.814Z,4.80
2019-04-06T05:44:55.222Z,7.33
2019-04-06T05:47:22.822Z,8.10
2019-04-06T05:49:50.375Z,8.13
2019-04-06T05:52:18.865Z,12.47
2019-04-06T05:54:47.329Z,19.73
2019-04-06T05:57:16.791Z,15.53
2019-04-06T05:59:44.351Z,6.00
2019-04-06T06:02:12.677Z,6.50
2019-04-06T06:04:40.972Z,7.13
2019-04-06T06:07:07.933Z,9.90
2019-04-06T06:09:35.432Z,7.63
2019-04-06T06:12:02.993Z,9.30
2019-04-06T06:14:30.551Z,7.90
2019-04-06T06:16:58.107Z,8.70
2019-04-06T06:19:25.660Z,8.70
2019-04-06T06:21:53.213Z,7.83
2019-04-06T06:24:22.691Z,10.50
2019-04-06T06:26:50.253Z,6.13
2019-04-06T06:29:17.922Z,11.63
2019-04-06T06:31:45.408Z,9.73
2019-04-06T06:34:12.967Z,7.43
2019-04-06T06:36:40.523Z,7.33
2019-04-06T06:39:08.319Z,8.93
2019-04-06T06:41:35.691Z,14.70
2019-04-06T06:44:04.019Z,9.90
2019-04-06T06:46:31.578Z,6.80
2019-04-06T06:48:59.150Z,10.20
2019-04-06T06:51:27.700Z,7.23
2019-04-06T06:53:55.247Z,9.13
2019-04-06T06:56:22.835Z,8.13
2019-04-06T06:58:52.299Z,8.67
2019-04-06T07:01:19.851Z,7.77
2019-04-06T07:03:47.500Z,8.47
2019-04-06T07:06:15.020Z,5.50
2019-04-06T07:08:42.575Z,9.17
2019-04-06T07:11:10.147Z,8.47
2019-04-06T07:13:37.879Z,10.30
2019-04-06T07:16:06.422Z,13.70
2019-04-06T07:18:33.843Z,10.60
2019-04-06T07:21:01.605Z,9.57
2019-04-06T07:23:29.003Z,8.83
2019-04-06T07:25:59.025Z,14.00
2019-04-06T07:28:37.110Z,8.87
2019-04-06T07:30:53.584Z,8.63
2019-04-06T07:33:21.186Z,10.37
2019-04-06T07:35:48.739Z,14.87
2019-04-06T07:38:16.336Z,7.23
2019-04-06T07:40:43.890Z,6.80
2019-04-06T07:43:11.441Z,8.17
2019-04-06T07:45:39.005Z,12.67
2019-04-06T07:48:06.551Z,7.50
2019-04-06T07:50:34.103Z,9.33
2019-04-06T07:53:01.872Z,9.33
2019-04-06T07:55:30.039Z,9.80
2019-04-06T07:57:59.564Z,8.30
2019-04-06T08:00:27.266Z,8.00
2019-04-06T08:02:54.722Z,9.63
2019-04-06T08:05:22.394Z,8.60
2019-04-06T08:07:49.899Z,14.17
2019-04-06T08:10:17.451Z,7.97
2019-04-06T08:12:45.011Z,7.73
2019-04-06T08:15:12.596Z,6.43
2019-04-06T08:17:40.151Z,10.70
2019-04-06T08:20:08.751Z,8.63
2019-04-06T08:22:36.313Z,13.03
2019-04-06T08:25:03.871Z,6.20
2019-04-06T08:27:31.429Z,6.80
2019-04-06T08:29:59.106Z,8.20
2019-04-06T08:32:26.768Z,9.47
2019-04-06T08:34:55.148Z,7.87
2019-04-06T08:37:22.707Z,12.20
2019-04-06T08:39:52.202Z,11.60
2019-04-06T08:42:19.775Z,16.50
2019-04-06T08:44:47.350Z,10.37
2019-04-06T08:47:15.080Z,16.53
2019-04-06T08:49:44.455Z,13.27
2019-04-06T08:52:12.333Z,14.77
2019-04-06T08:54:39.798Z,15.17
2019-04-06T08:57:07.403Z,14.33
2019-04-06T08:59:35.321Z,13.47
2019-04-06T09:02:03.167Z,14.07
2019-04-06T09:04:30.516Z,15.63
2019-04-06T09:06:59.340Z,14.07
2019-04-06T09:09:26.792Z,12.90
2019-04-06T09:11:54.368Z,13.27
2019-04-06T09:14:22.509Z,18.97
2019-04-06T09:16:50.095Z,15.07
2019-04-06T09:19:17.656Z,11.90
2019-04-06T09:21:45.629Z,12.70
2019-04-06T09:24:14.272Z,23.40
2019-04-06T09:26:41.847Z,11.40
2019-04-06T09:29:09.408Z,25.13
2019-04-06T09:31:36.990Z,8.70
2019-04-06T09:34:04.551Z,10.70
2019-04-06T09:36:32.118Z,23.03
2019-04-06T09:39:01.743Z,18.50
2019-04-06T09:41:30.511Z,11.10
2019-04-06T09:43:58.092Z,10.53
2019-04-06T09:46:27.716Z,15.57
2019-04-06T09:49:01.459Z,9.20
2019-04-06T09:54:27.701Z,13.85
2019-04-06T09:57:00.305Z,7.80
2019-04-06T09:59:35.954Z,10.80
2019-04-06T10:02:06.660Z,8.20
2019-04-06T10:04:34.216Z,8.20
2019-04-06T10:07:05.553Z,10.13
2019-04-06T10:09:34.410Z,15.00
2019-04-06T10:12:04.549Z,18.00
2019-04-06T10:14:47.443Z,20.00
2019-04-06T10:17:18.244Z,12.70
2019-04-06T10:20:05.348Z,13.90
2019-04-06T10:22:33.847Z,11.23
2019-04-06T10:25:20.899Z,13.53
2019-04-06T10:27:54.394Z,14.43
2019-04-06T10:30:23.633Z,13.03
2019-04-06T10:32:51.999Z,14.80
2019-04-06T10:35:24.527Z,10.70
2019-04-06T10:37:52.117Z,23.93
2019-04-06T10:40:22.455Z,11.00
2019-04-06T10:42:55.701Z,19.90
2019-04-06T10:48:21.259Z,20.85
2019-04-06T10:53:45.092Z,16.08
2019-04-06T10:56:18.112Z,24.47
2019-04-06T10:58:46.301Z,15.13
2019-04-06T11:01:13.867Z,22.37
2019-04-06T11:03:44.198Z,16.93
2019-04-06T11:06:14.165Z,18.70
2019-04-06T11:08:46.847Z,16.90
2019-04-06T11:11:17.926Z,15.70
2019-04-06T11:13:44.616Z,16.00
2019-04-06T11:16:18.311Z,15.10
2019-04-06T11:18:47.580Z,15.37
2019-04-06T11:21:21.345Z,17.10
2019-04-06T11:23:54.415Z,23.13
2019-04-06T11:26:23.599Z,12.87
2019-04-06T11:28:58.120Z,19.00
2019-04-06T11:31:43.051Z,17.00
2019-04-06T11:34:11.384Z,19.13
2019-04-06T11:36:38.947Z,15.30
2019-04-06T11:39:08.461Z,13.63
2019-04-06T11:41:47.840Z,25.50
2019-04-06T11:44:26.216Z,14.53
2019-04-06T11:49:57.171Z,13.83
2019-04-06T11:52:25.180Z,12.93
2019-04-06T11:54:52.744Z,12.00
2019-04-06T11:57:23.373Z,11.97
2019-04-06T11:59:57.639Z,11.60
2019-04-06T12:02:30.772Z,10.63
2019-04-06T12:05:03.063Z,13.53
2019-04-06T12:07:36.565Z,10.50
2019-04-06T12:10:07.469Z,20.03
2019-04-06T12:12:56.082Z,16.70
2019-04-06T12:15:27.389Z,18.77
2019-04-06T12:18:01.072Z,16.13
2019-04-06T12:20:32.240Z,14.17
2019-04-06T12:23:15.548Z,19.63
2019-04-06T12:25:43.979Z,12.40
2019-04-06T12:28:27.293Z,23.30
2019-04-06T12:30:57.097Z,22.23
2019-04-06T12:33:25.610Z,16.07
2019-04-06T12:39:04.575Z,20.27
2019-04-06T12:44:32.332Z,19.93
2019-04-06T12:47:06.575Z,25.13
2019-04-06T12:49:39.602Z,37.43
2019-04-06T12:52:10.575Z,19.00
2019-04-06T12:54:40.892Z,28.03
2019-04-06T12:57:28.070Z,26.33
2019-04-06T13:00:11.375Z,23.53
2019-04-06T13:02:41.881Z,31.30
2019-04-06T13:05:15.090Z,19.40
2019-04-06T13:08:02.396Z,19.13
2019-04-06T13:10:30.952Z,19.93
2019-04-06T13:13:04.443Z,17.93
2019-04-06T13:15:34.703Z,18.93
2019-04-06T13:18:20.092Z,19.83
2019-04-06T13:20:53.245Z,22.20
2019-04-06T13:23:42.559Z,22.87
2019-04-06T13:26:27.852Z,30.90
2019-04-06T13:28:59.051Z,34.00
2019-04-06T13:31:32.418Z,14.40
2019-04-06T13:34:05.415Z,14.43
2019-04-06T13:36:38.511Z,19.10
2019-04-06T13:39:11.726Z,15.90
2019-04-06T13:44:47.159Z,17.10
2019-04-06T13:47:30.315Z,17.37
2019-04-06T13:50:03.479Z,16.40
2019-04-06T13:52:31.948Z,16.70
2019-04-06T13:55:07.533Z,15.67
2019-04-06T13:57:37.015Z,16.97
2019-04-06T14:00:04.423Z,17.90
2019-04-06T14:02:33.656Z,15.67
2019-04-06T14:05:10.923Z,17.20
2019-04-06T14:07:44.151Z,16.50
2019-04-06T14:10:13.387Z,21.55
2019-04-06T14:12:46.415Z,16.33
2019-04-06T14:15:16.599Z,16.47
2019-04-06T14:18:00.234Z,16.50
2019-04-06T14:20:44.574Z,14.87
2019-04-06T14:23:12.593Z,18.67
2019-04-06T14:28:49.546Z,19.47
2019-04-06T14:31:27.938Z,15.93
2019-04-06T14:34:05.003Z,20.27
2019-04-06T14:39:41.706Z,19.20
2019-04-06T14:42:09.244Z,16.40
2019-04-06T14:44:46.736Z,18.97
2019-04-06T14:47:20.093Z,18.17
2019-04-06T14:50:00.371Z,18.43
2019-04-06T14:52:43.106Z,18.20
2019-04-06T14:55:14.344Z,17.90
2019-04-06T14:58:01.594Z,18.70
2019-04-06T15:03:41.375Z,21.77
2019-04-06T15:06:24.591Z,20.63
2019-04-06T15:08:57.817Z,14.20
2019-04-06T15:14:25.104Z,16.87
2019-04-06T15:20:03.484Z,17.27
2019-04-06T15:22:37.749Z,16.27
2019-04-06T15:25:21.249Z,18.13
2019-04-06T15:27:50.835Z,17.00
2019-04-06T15:33:28.434Z,16.10
2019-04-06T15:36:00.595Z,15.77
2019-04-06T15:38:39.819Z,24.73
2019-04-06T15:41:09.994Z,15.30
2019-04-06T15:43:43.261Z,18.70
2019-04-06T15:46:21.558Z,19.63
2019-04-06T15:48:53.381Z,18.00
2019-04-06T15:51:27.054Z,15.20
2019-04-06T15:53:55.914Z,19.93
2019-04-06T15:59:32.152Z,18.90
2019-04-06T16:02:17.475Z,25.63
2019-04-06T16:04:49.687Z,19.30
2019-04-06T16:07:29.823Z,19.27
2019-04-06T16:09:57.682Z,23.63
2019-04-06T16:12:29.588Z,23.57
2019-04-06T16:14:59.783Z,22.30
2019-04-06T16:17:28.267Z,23.93
2019-04-06T16:20:10.720Z,23.57
2019-04-06T16:22:44.643Z,24.00
2019-04-06T16:25:18.263Z,26.58
2019-04-06T16:27:46.285Z,25.77
2019-04-06T16:30:31.648Z,23.00
2019-04-06T16:33:04.935Z,24.23
2019-04-06T16:35:39.507Z,24.57
2019-04-06T16:38:12.417Z,28.80
2019-04-06T16:43:52.688Z,25.53
2019-04-06T16:46:24.839Z,22.60
2019-04-06T16:49:07.639Z,23.67
2019-04-06T16:54:38.920Z,23.13
2019-04-06T16:57:12.964Z,27.10
2019-04-06T16:59:43.122Z,26.50
2019-04-06T17:02:23.007Z,24.53
2019-04-06T17:04:43.263Z,29.37
2019-04-06T17:07:12.374Z,23.47
2019-04-06T17:09:46.627Z,20.53
2019-04-06T17:12:30.978Z,22.37
2019-04-06T17:15:17.268Z,22.30
2019-04-06T17:17:45.740Z,23.00
2019-04-06T17:20:18.820Z,20.70
2019-04-06T17:22:49.869Z,22.13
2019-04-06T17:25:18.038Z,24.63
2019-04-06T17:27:51.423Z,24.00
2019-04-06T17:30:23.880Z,21.10
2019-04-06T17:32:58.141Z,26.87
2019-04-06T17:35:31.291Z,22.80
2019-04-06T17:38:13.632Z,24.07
2019-04-06T17:43:47.399Z,27.03
2019-04-06T17:46:13.915Z,25.23
2019-04-06T17:48:43.020Z,23.43
2019-04-06T17:51:11.248Z,27.93
2019-04-06T17:53:44.535Z,21.73
2019-04-06T17:59:08.502Z,23.37
2019-04-06T18:01:42.275Z,22.23
2019-04-06T18:04:25.205Z,33.70
2019-04-06T18:06:58.488Z,50.57
2019-04-06T18:09:32.815Z,49.17
2019-04-06T18:12:01.231Z,48.53
2019-04-06T18:14:29.106Z,36.17
2019-04-06T18:16:58.358Z,31.27
2019-04-06T18:19:25.999Z,29.70
2019-04-06T18:21:53.871Z,38.13
2019-04-06T18:24:21.412Z,29.83
2019-04-06T18:26:48.802Z,25.73
2019-04-06T18:29:16.363Z,27.60
2019-04-06T18:31:46.808Z,24.20
2019-04-06T18:34:14.367Z,27.27
2019-04-06T18:36:47.918Z,31.07
2019-04-06T18:39:15.199Z,61.07
2019-04-06T18:41:43.628Z,60.73
2019-04-06T18:44:11.225Z,38.07
2019-04-06T18:46:39.741Z,32.43
2019-04-06T18:49:09.386Z,22.30
2019-04-06T18:51:37.293Z,25.60
2019-04-06T18:54:08.094Z,23.40
2019-04-06T18:56:33.431Z,27.83
2019-04-06T18:59:01.570Z,31.27
2019-04-06T19:01:29.167Z,32.53
2019-04-06T19:03:56.735Z,28.87
2019-04-06T19:06:24.296Z,22.20
2019-04-06T19:08:52.625Z,28.53
2019-04-06T19:11:21.219Z,26.00
2019-04-06T19:13:48.779Z,21.73
2019-04-06T19:16:17.841Z,22.70
2019-04-06T19:18:44.890Z,22.90
2019-04-06T19:21:13.966Z,25.00
2019-04-06T19:23:41.279Z,26.20
2019-04-06T19:26:08.847Z,20.37
2019-04-06T19:28:38.147Z,28.80
2019-04-06T19:31:08.395Z,19.87
2019-04-06T19:33:36.408Z,27.30
2019-04-06T19:36:03.559Z,21.30
2019-04-06T19:38:31.119Z,24.03
2019-04-06T19:40:58.703Z,35.37
2019-04-06T19:43:26.741Z,27.80
2019-04-06T19:45:54.107Z,24.90
2019-04-06T19:48:21.484Z,28.43
2019-04-06T19:50:50.087Z,30.10
2019-04-06T19:53:17.763Z,38.93
2019-04-06T19:55:45.550Z,26.40
2019-04-06T19:58:12.873Z,34.43
2019-04-06T20:00:40.517Z,29.20
2019-04-06T20:03:08.076Z,30.07
2019-04-06T20:05:35.663Z,30.43
2019-04-06T20:08:03.273Z,29.00
2019-04-06T20:10:31.723Z,26.87
2019-04-06T20:12:59.967Z,26.30
2019-04-06T20:15:27.733Z,29.87
2019-04-06T20:17:57.393Z,31.43
2019-04-06T20:20:25.011Z,28.13
2019-04-06T20:22:52.772Z,28.87
2019-04-06T20:25:20.466Z,29.13
2019-04-06T20:27:47.807Z,38.90
2019-04-06T20:30:16.192Z,47.17
2019-04-06T20:32:44.726Z,39.77
2019-04-06T20:35:12.812Z,44.35
2019-04-06T20:37:40.391Z,39.83
2019-04-06T20:40:08.785Z,40.47
2019-04-06T20:42:36.887Z,37.70
2019-04-06T20:45:04.226Z,47.73
2019-04-06T20:47:32.116Z,45.03
2019-04-06T20:49:59.398Z,38.10
2019-04-06T20:52:28.723Z,35.83
2019-04-06T20:54:56.474Z,33.53
2019-04-06T20:57:23.996Z,37.83
2019-04-06T20:59:51.494Z,32.90
2019-04-06T21:02:19.892Z,29.07
2019-04-06T21:04:47.465Z,30.00
2019-04-06T21:07:15.059Z,29.93
2019-04-06T21:09:42.900Z,31.87
2019-04-06T21:12:10.627Z,30.73
2019-04-06T21:14:39.757Z,26.77
2019-04-06T21:17:07.320Z,27.67
2019-04-06T21:19:34.945Z,27.47
2019-04-06T21:22:02.496Z,24.43
2019-04-06T21:24:30.331Z,33.30
2019-04-06T21:26:58.723Z,31.80
2019-04-06T21:29:27.064Z,30.63
2019-04-06T21:31:55.108Z,32.37
2019-04-06T21:34:22.260Z,34.43
2019-04-06T21:36:51.192Z,30.30
2019-04-06T21:39:18.414Z,36.33
2019-04-06T21:41:47.907Z,35.90
2019-04-06T21:44:17.766Z,35.03
2019-04-06T21:46:45.658Z,31.20
2019-04-06T21:49:13.474Z,36.63
2019-04-06T21:51:40.834Z,31.47
2019-04-06T21:54:08.395Z,29.17
2019-04-06T21:56:37.719Z,30.70
2019-04-06T21:59:05.380Z,38.53
2019-04-06T22:01:33.056Z,30.00
2019-04-06T22:04:00.619Z,35.67
2019-04-06T22:06:28.183Z,44.30
2019-04-06T22:08:55.756Z,40.70
2019-04-06T22:11:23.319Z,35.40
2019-04-06T22:13:51.247Z,35.47
2019-04-06T22:16:18.776Z,38.37
2019-04-06T22:18:46.273Z,36.20
2019-04-06T22:21:13.836Z,35.20
2019-04-06T22:23:44.347Z,40.60
2019-04-06T22:26:09.350Z,35.03
2019-04-06T22:28:38.329Z,36.63
2019-04-06T22:31:06.499Z,37.67
2019-04-06T22:33:33.552Z,39.90
2019-04-06T22:36:01.158Z,35.10
2019-04-06T22:38:29.636Z,36.63
2019-04-06T22:40:58.110Z,37.50
2019-04-06T22:43:25.680Z,42.23
2019-04-06T22:45:53.244Z,43.00
2019-04-06T22:48:23.501Z,48.57
2019-04-06T22:50:51.102Z,40.93
2019-04-06T22:53:18.717Z,39.73
2019-04-06T22:55:46.275Z,39.13
2019-04-06T22:58:15.791Z,46.10
2019-04-06T23:00:46.445Z,40.67
2019-04-06T23:06:14.201Z,35.42
2019-04-06T23:08:42.188Z,37.90
2019-04-06T23:11:09.050Z,41.03
2019-04-06T23:13:37.110Z,34.03
2019-04-06T23:16:04.665Z,40.00
2019-04-06T23:18:32.189Z,33.70
2019-04-06T23:20:59.882Z,38.23
2019-04-06T23:23:27.510Z,35.10
2019-04-06T23:25:55.152Z,40.23
2019-04-06T23:28:22.707Z,43.67
2019-04-06T23:30:50.278Z,41.73
2019-04-06T23:33:17.848Z,37.90
2019-04-06T23:35:46.071Z,37.50
2019-04-06T23:38:13.286Z,35.10
2019-04-06T23:40:40.628Z,39.70
2019-04-06T23:43:08.432Z,36.80
2019-04-06T23:45:35.791Z,35.77
2019-04-06T23:48:03.740Z,43.10
2019-04-06T23:50:31.863Z,40.70
2019-04-06T23:52:59.768Z,40.77
2019-04-06T23:55:27.367Z,38.00
2019-04-06T23:57:54.927Z,38.93
